createdAt,value
2023-04-21T00:01:26.303Z,100591.59
2023-04-21T00:03:58.369Z,100590.44
2023-04-21T00:06:29.178Z,100601.53
2023-04-21T00:08:59.624Z,100602.00
2023-04-21T00:11:30.432Z,100606.38
2023-04-21T00:14:01.372Z,100600.03
2023-04-21T00:16:32.019Z,100608.00
2023-04-21T00:19:03.151Z,100620.72
2023-04-21T00:21:34.220Z,100621.66
2023-04-21T00:24:04.881Z,100622.34
2023-04-21T00:26:35.762Z,100625.59
2023-04-21T00:29:06.475Z,100633.41
2023-04-21T00:31:37.333Z,100633.41
2023-04-21T00:34:08.703Z,100641.38
2023-04-21T00:36:39.608Z,100645.28
2023-04-21T00:39:10.168Z,100645.78
2023-04-21T00:41:42.818Z,100656.06
2023-04-21T00:44:14.132Z,100661.59
2023-04-21T00:46:46.190Z,100656.38
2023-04-21T00:49:18.784Z,100673.84
2023-04-21T00:51:49.450Z,100669.91
2023-04-21T00:54:20.730Z,100677.09
2023-04-21T00:56:51.655Z,100687.00
2023-04-21T00:59:22.320Z,100681.44
2023-04-21T01:01:52.910Z,100690.59
2023-04-21T01:04:25.333Z,100700.16
2023-04-21T01:06:56.203Z,100705.03
2023-04-21T01:09:27.016Z,100711.72
2023-04-21T01:12:24.039Z,100717.28
2023-04-21T01:14:55.114Z,100727.22
2023-04-21T01:17:25.701Z,100724.56
2023-04-21T01:19:58.811Z,100732.06
2023-04-21T01:22:29.740Z,100736.00
2023-04-21T01:25:00.591Z,100749.03
2023-04-21T01:27:30.832Z,100753.41
2023-04-21T01:30:01.203Z,100749.50
2023-04-21T01:32:33.709Z,100737.63
2023-04-21T01:35:04.636Z,100750.31
2023-04-21T01:37:36.680Z,100754.72
2023-04-21T01:40:10.009Z,100762.69
2023-04-21T01:42:43.214Z,100744.13
2023-04-21T01:45:14.975Z,100750.44
2023-04-21T01:47:45.632Z,100748.03
2023-04-21T01:50:16.778Z,100750.44
2023-04-21T01:52:47.155Z,100744.13
2023-04-21T01:55:18.531Z,100759.25
2023-04-21T01:57:48.700Z,100750.56
2023-04-21T02:00:19.378Z,100757.63
2023-04-21T02:02:51.135Z,100753.03
2023-04-21T02:05:21.707Z,100757.75
2023-04-21T02:07:51.950Z,100754.97
2023-04-21T02:10:24.613Z,100762.13
2023-04-21T02:12:54.739Z,100771.28
2023-04-21T02:15:24.871Z,100765.25
2023-04-21T02:17:55.001Z,100771.28
2023-04-21T02:20:28.735Z,100764.91
2023-04-21T02:22:59.041Z,100761.00
2023-04-21T02:25:32.186Z,100765.03
2023-04-21T02:28:02.523Z,100765.84
2023-04-21T02:30:32.819Z,100756.72
2023-04-21T02:33:03.209Z,100761.94
2023-04-21T02:35:36.104Z,100761.63
2023-04-21T02:38:09.693Z,100755.75
2023-04-21T02:40:40.306Z,100758.84
2023-04-21T02:43:11.019Z,100766.38
2023-04-21T02:45:41.292Z,100766.84
2023-04-21T02:48:12.190Z,100763.22
2023-04-21T02:50:42.662Z,100759.31
2023-04-21T02:53:12.847Z,100761.28
2023-04-21T02:55:43.264Z,100762.09
2023-04-21T02:58:13.895Z,100760.13
2023-04-21T03:00:44.974Z,100757.38
2023-04-21T03:03:15.612Z,100753.78
2023-04-21T03:05:45.914Z,100747.06
2023-04-21T03:08:16.316Z,100745.13
2023-04-21T03:10:46.637Z,100751.13
2023-04-21T03:13:16.977Z,100745.56
2023-04-21T03:15:47.545Z,100749.97
2023-04-21T03:18:19.908Z,100748.03
2023-04-21T03:20:50.356Z,100745.72
2023-04-21T03:23:20.726Z,100736.56
2023-04-21T03:25:51.082Z,100742.59
2023-04-21T03:28:21.896Z,100737.16
2023-04-21T03:30:52.224Z,100730.00
2023-04-21T03:33:22.585Z,100724.00
2023-04-21T03:35:53.367Z,100732.44
2023-04-21T03:38:23.697Z,100721.34
2023-04-21T03:40:53.797Z,100720.19
2023-04-21T03:43:24.646Z,100718.59
2023-04-21T03:45:55.012Z,100719.06
2023-04-21T03:48:25.210Z,100714.19
2023-04-21T03:50:55.420Z,100714.19
2023-04-21T03:53:25.820Z,100704.84
2023-04-21T03:55:56.175Z,100696.03
2023-04-21T03:58:26.590Z,100699.06
2023-04-21T04:00:56.989Z,100701.84
2023-04-21T04:03:27.400Z,100698.25
2023-04-21T04:05:58.591Z,100696.31
2023-04-21T04:08:28.919Z,100701.50
2023-04-21T04:10:59.115Z,100694.78
2023-04-21T04:13:30.031Z,100691.22
2023-04-21T04:16:01.364Z,100686.00
2023-04-21T04:18:31.583Z,100695.16
2023-04-21T04:21:01.736Z,100682.91
2023-04-21T04:23:31.915Z,100669.38
2023-04-21T04:26:02.176Z,100663.81
2023-04-21T04:28:33.241Z,100667.53
2023-04-21T04:31:05.391Z,100662.66
2023-04-21T04:33:35.612Z,100653.66
2023-04-21T04:36:06.590Z,100653.19
2023-04-21T04:38:39.828Z,100640.00
2023-04-21T04:41:11.579Z,100634.47
2023-04-21T04:43:41.917Z,100630.09
2023-04-21T04:46:15.341Z,100615.19
2023-04-21T04:48:45.583Z,100605.00
2023-04-21T04:51:16.043Z,100611.38
2023-04-21T04:53:46.387Z,100619.31
2023-04-21T04:56:16.780Z,100605.81
2023-04-21T04:58:49.342Z,100601.06
2023-04-21T05:01:20.409Z,100602.34
2023-04-21T05:03:51.452Z,100592.50
2023-04-21T05:06:21.589Z,100592.88
2023-04-21T05:08:51.672Z,100587.31
2023-04-21T05:11:21.960Z,100577.03
2023-04-21T05:13:52.175Z,100583.03
2023-04-21T05:16:22.584Z,100581.53
2023-04-21T05:18:56.309Z,100584.78
2023-04-21T05:21:30.695Z,100561.63
2023-04-21T05:24:01.924Z,100566.19
2023-04-21T05:26:32.703Z,100560.97
2023-04-21T05:29:03.544Z,100551.84
2023-04-21T05:31:33.922Z,100551.25
2023-04-21T05:34:04.264Z,100537.47
2023-04-21T05:36:34.905Z,100540.72
2023-04-21T05:39:05.225Z,100534.38
2023-04-21T05:41:35.654Z,100528.56
2023-04-21T05:44:05.931Z,100522.69
2023-04-21T05:46:37.350Z,100527.41
2023-04-21T05:49:07.670Z,100505.91
2023-04-21T05:51:38.162Z,100503.25
2023-04-21T05:54:08.469Z,100494.19
2023-04-21T05:56:38.950Z,100489.94
2023-04-21T05:59:09.545Z,100490.25
2023-04-21T06:01:40.100Z,100487.16
2023-04-21T06:04:10.626Z,100470.84
2023-04-21T06:06:41.086Z,100461.25
2023-04-21T06:09:11.193Z,100468.88
2023-04-21T06:11:41.456Z,100462.41
2023-04-21T06:14:11.701Z,100452.13
2023-04-21T06:16:42.022Z,100441.72
2023-04-21T06:19:12.233Z,100436.19
2023-04-21T06:21:42.617Z,100427.03
2023-04-21T06:24:12.955Z,100421.16
2023-04-21T06:26:43.218Z,100412.38
2023-04-21T06:29:13.549Z,100405.66
2023-04-21T06:31:43.914Z,100402.19
2023-04-21T06:34:14.175Z,100399.13
2023-04-21T06:36:44.418Z,100399.66
2023-04-21T06:39:14.597Z,100380.25
2023-04-21T06:41:44.659Z,100370.31
2023-04-21T06:44:16.520Z,100365.13
2023-04-21T06:46:46.826Z,100354.38
2023-04-21T06:49:17.453Z,100350.44
2023-04-21T06:51:48.718Z,100348.00
2023-04-21T06:54:19.340Z,100339.34
2023-04-21T06:56:49.668Z,100333.78
2023-04-21T06:59:20.772Z,100328.25
2023-04-21T07:01:54.559Z,100327.88
2023-04-21T07:04:24.940Z,100308.91
2023-04-21T07:06:55.254Z,100314.53
2023-04-21T07:09:25.545Z,100311.38
2023-04-21T07:11:55.850Z,100306.28
2023-04-21T07:14:25.918Z,100308.72
2023-04-21T07:16:57.500Z,100299.50
2023-04-21T07:19:28.394Z,100297.97
2023-04-21T07:21:58.438Z,100288.84
2023-04-21T07:24:28.518Z,100288.00
2023-04-21T07:26:58.745Z,100274.97
2023-04-21T07:29:29.333Z,100271.91
2023-04-21T07:32:00.864Z,100272.63
2023-04-21T07:34:31.129Z,100258.31
2023-04-21T07:37:01.415Z,100264.31
2023-04-21T07:39:31.590Z,100255.53
2023-04-21T07:42:01.953Z,100249.25
2023-04-21T07:44:32.192Z,100246.03
2023-04-21T07:47:02.492Z,100237.72
2023-04-21T07:49:32.896Z,100239.66
2023-04-21T07:52:03.248Z,100235.38
2023-04-21T07:54:33.808Z,100228.66
2023-04-21T07:57:05.063Z,100222.75
2023-04-21T07:59:35.144Z,100223.53
2023-04-21T08:02:05.454Z,100224.34
2023-04-21T08:04:35.897Z,100228.75
2023-04-21T08:07:06.612Z,100207.31
2023-04-21T08:09:37.423Z,100206.47
2023-04-21T08:12:07.751Z,100198.91
2023-04-21T08:14:38.268Z,100197.75
2023-04-21T08:17:08.746Z,100189.44
2023-04-21T08:19:39.093Z,100190.31
2023-04-21T08:22:09.486Z,100176.88
2023-04-21T08:24:39.786Z,100179.28
2023-04-21T08:27:10.097Z,100170.63
2023-04-21T08:29:40.208Z,100160.34
2023-04-21T08:32:10.598Z,100165.16
2023-04-21T08:34:41.007Z,100168.00
2023-04-21T08:37:11.352Z,100161.66
2023-04-21T08:39:41.763Z,100156.63
2023-04-21T08:42:12.654Z,100154.66
2023-04-21T08:44:44.088Z,100152.69
2023-04-21T08:47:16.072Z,100160.66
2023-04-21T08:49:49.546Z,100159.47
2023-04-21T08:52:20.747Z,100152.69
2023-04-21T08:54:54.372Z,100161.44
2023-04-21T08:57:24.904Z,100150.78
2023-04-21T08:59:55.203Z,100154.31
2023-04-21T09:02:25.431Z,100142.00
2023-04-21T09:04:58.127Z,100139.97
2023-04-21T09:07:37.429Z,100143.97
2023-04-21T09:10:09.267Z,100141.28
2023-04-21T09:12:43.387Z,100138.50
2023-04-21T09:15:15.030Z,100143.78
2023-04-21T09:17:49.001Z,100142.44
2023-04-21T09:20:24.125Z,100147.28
2023-04-21T09:22:54.937Z,100150.44
2023-04-21T09:25:25.595Z,100148.09
2023-04-21T09:27:58.471Z,100140.03
2023-04-21T09:30:28.854Z,100138.88
2023-04-21T09:33:01.054Z,100149.16
2023-04-21T09:35:43.024Z,100143.97
2023-04-21T09:38:15.336Z,100145.97
2023-04-21T09:40:45.612Z,100144.34
2023-04-21T09:43:16.202Z,100144.72
2023-04-21T09:45:46.693Z,100150.25
2023-04-21T09:48:22.284Z,100140.69
2023-04-21T09:51:22.988Z,100134.41
2023-04-21T09:53:45.037Z,100133.25
2023-04-21T09:56:17.069Z,100128.03
2023-04-21T09:58:51.161Z,100134.88
2023-04-21T10:01:23.287Z,100135.66
2023-04-21T10:03:54.186Z,100127.59
2023-04-21T10:06:25.645Z,100127.59
2023-04-21T10:09:00.426Z,100126.09
2023-04-21T10:11:30.918Z,100130.81
2023-04-21T10:14:01.486Z,100127.59
2023-04-21T10:16:32.021Z,100128.88
2023-04-21T10:19:02.344Z,100144.72
2023-04-21T10:21:32.670Z,100137.53
2023-04-21T10:24:02.753Z,100132.44
2023-04-21T10:26:38.852Z,100138.44
2023-04-21T10:29:11.274Z,100127.25
2023-04-21T10:31:46.828Z,100136.38
2023-04-21T10:34:18.144Z,100126.38
2023-04-21T10:36:49.318Z,100135.94
2023-04-21T10:39:36.035Z,100123.22
2023-04-21T10:42:25.525Z,100124.38
2023-04-21T10:45:01.476Z,100126.38
2023-04-21T10:47:46.575Z,100122.69
2023-04-21T10:51:00.317Z,100130.31
2023-04-21T10:53:46.555Z,100126.00
2023-04-21T10:56:17.351Z,100123.53
2023-04-21T10:58:47.735Z,100128.69
2023-04-21T11:01:18.855Z,100137.84
2023-04-21T11:03:49.584Z,100132.28
2023-04-21T11:06:20.980Z,100131.84
2023-04-21T11:09:00.846Z,100131.84
2023-04-21T11:11:31.204Z,100141.69
2023-04-21T11:14:05.290Z,100136.59
2023-04-21T11:16:37.183Z,100138.19
2023-04-21T11:19:07.410Z,100143.41
2023-04-21T11:21:37.551Z,100144.13
2023-04-21T11:24:08.038Z,100136.13
2023-04-21T11:26:45.069Z,100146.91
2023-04-21T11:29:15.445Z,100149.91
2023-04-21T11:31:52.677Z,100149.13
2023-04-21T11:34:27.840Z,100155.16
2023-04-21T11:36:58.829Z,100162.63
2023-04-21T11:39:29.053Z,100164.19
2023-04-21T11:41:59.484Z,100166.56
2023-04-21T11:44:42.041Z,100165.34
2023-04-21T11:47:23.730Z,100164.97
2023-04-21T11:50:02.189Z,100165.41
2023-04-21T11:52:39.701Z,100165.78
2023-04-21T11:55:23.457Z,100174.91
2023-04-21T11:57:56.591Z,100188.09
2023-04-21T12:00:27.434Z,100188.78
2023-04-21T12:02:59.234Z,100193.53
2023-04-21T12:05:38.568Z,100194.34
2023-04-21T12:08:09.846Z,100196.66
2023-04-21T12:10:40.127Z,100196.66
2023-04-21T12:13:10.568Z,100203.75
2023-04-21T12:15:40.910Z,100203.75
2023-04-21T12:18:16.642Z,100206.09
2023-04-21T12:20:54.701Z,100213.63
2023-04-21T12:23:24.915Z,100218.34
2023-04-21T12:25:55.277Z,100222.75
2023-04-21T12:28:25.846Z,100229.53
2023-04-21T12:30:56.031Z,100227.13
2023-04-21T12:33:27.600Z,100231.44
2023-04-21T12:35:58.068Z,100237.00
2023-04-21T12:38:28.635Z,100248.09
2023-04-21T12:40:58.914Z,100246.50
2023-04-21T12:43:29.304Z,100259.19
2023-04-21T12:45:59.707Z,100264.38
2023-04-21T12:48:30.044Z,100265.19
2023-04-21T12:51:00.196Z,100277.19
2023-04-21T12:53:31.277Z,100274.41
2023-04-21T12:56:05.060Z,100270.91
2023-04-21T12:58:35.865Z,100269.66
2023-04-21T13:03:18.520Z,100278.34
2023-04-21T13:05:48.960Z,100288.59
2023-04-21T13:08:19.692Z,100296.91
2023-04-21T13:10:50.021Z,100308.97
2023-04-21T13:13:20.507Z,100311.22
2023-04-21T13:15:51.629Z,100316.06
2023-04-21T13:18:21.949Z,100324.84
2023-04-21T13:20:52.444Z,100318.75
2023-04-21T13:23:22.831Z,100326.72
2023-04-21T13:25:53.338Z,100330.50
2023-04-21T13:28:23.786Z,100330.06
2023-04-21T13:30:55.706Z,100328.78
2023-04-21T13:33:26.757Z,100334.53
2023-04-21T13:35:57.100Z,100336.06
2023-04-21T13:38:28.062Z,100334.31
2023-04-21T13:40:59.302Z,100320.34
2023-04-21T13:43:29.743Z,100325.91
2023-04-21T13:46:00.624Z,100325.09
2023-04-21T13:48:32.148Z,100335.41
2023-04-21T13:51:03.311Z,100332.25
2023-04-21T13:53:33.661Z,100341.97
2023-04-21T13:56:03.923Z,100342.91
2023-04-21T13:58:34.876Z,100345.69
2023-04-21T14:01:06.347Z,100352.78
2023-04-21T14:03:36.905Z,100354.75
2023-04-21T14:06:07.563Z,100351.34
2023-04-21T14:08:38.601Z,100361.75
2023-04-21T14:11:08.989Z,100357.63
2023-04-21T14:13:44.913Z,100367.34
2023-04-21T14:16:18.707Z,100363.13
2023-04-21T14:18:49.844Z,100357.88
2023-04-21T14:21:20.038Z,100367.34
2023-04-21T14:23:50.556Z,100364.56
2023-04-21T14:26:21.270Z,100376.38
2023-04-21T14:28:53.157Z,100381.22
2023-04-21T14:31:23.845Z,100386.13
2023-04-21T14:33:54.194Z,100394.91
2023-04-21T14:36:24.537Z,100388.09
2023-04-21T14:38:54.751Z,100395.34
2023-04-21T14:41:24.829Z,100403.50
2023-04-21T14:43:57.258Z,100403.28
2023-04-21T14:46:28.031Z,100408.38
2023-04-21T14:49:00.044Z,100409.31
2023-04-21T14:51:30.782Z,100425.03
2023-04-21T14:54:01.512Z,100440.28
2023-04-21T14:56:31.878Z,100447.53
2023-04-21T14:59:02.345Z,100449.50
2023-04-21T15:01:33.187Z,100452.63
2023-04-21T15:04:04.313Z,100452.97
2023-04-21T15:06:34.946Z,100459.44
2023-04-21T15:09:06.586Z,100463.03
2023-04-21T15:11:37.396Z,100472.13
2023-04-21T15:14:07.917Z,100474.34
2023-04-21T15:16:38.471Z,100486.75
2023-04-21T15:19:08.928Z,100485.81
2023-04-21T15:21:39.277Z,100493.44
2023-04-21T15:24:09.998Z,100485.13
2023-04-21T15:26:40.509Z,100485.91
2023-04-21T15:29:10.739Z,100489.16
2023-04-21T15:31:41.074Z,100494.34
2023-04-21T15:34:11.559Z,100498.72
2023-04-21T15:36:41.681Z,100491.56
2023-04-21T15:39:17.405Z,100511.44
2023-04-21T15:41:47.725Z,100509.03
2023-04-21T15:44:17.949Z,100497.56
2023-04-21T15:46:48.276Z,100512.59
2023-04-21T15:49:18.713Z,100508.66
2023-04-21T15:51:49.079Z,100506.72
2023-04-21T15:54:19.513Z,100503.50
2023-04-21T15:56:49.792Z,100506.63
2023-04-21T15:59:20.260Z,100501.50
2023-04-21T16:01:50.598Z,100501.41
2023-04-21T16:04:21.434Z,100502.66
2023-04-21T16:06:52.379Z,100506.63
2023-04-21T16:09:23.954Z,100502.22
2023-04-21T16:11:54.476Z,100509.72
2023-04-21T16:14:25.418Z,100503.03
2023-04-21T16:16:55.530Z,100506.50
2023-04-21T16:19:26.000Z,100509.28
2023-04-21T16:21:57.505Z,100516.34
2023-04-21T16:24:28.254Z,100507.19
2023-04-21T16:27:00.051Z,100509.19
2023-04-21T16:29:30.454Z,100504.41
2023-04-21T16:32:01.006Z,100500.84
2023-04-21T16:34:31.469Z,100497.63
2023-04-21T16:37:01.996Z,100493.00
2023-04-21T16:39:32.256Z,100494.03
2023-04-21T16:42:02.739Z,100496.81
2023-04-21T16:44:33.271Z,100491.28
2023-04-21T16:47:03.922Z,100494.38
2023-04-21T16:49:34.213Z,100493.22
2023-04-21T16:52:04.606Z,100499.94
2023-04-21T16:54:34.893Z,100496.81
2023-04-21T16:57:05.382Z,100501.09
2023-04-21T16:59:35.832Z,100505.00
2023-04-21T17:02:06.196Z,100505.00
2023-04-21T17:04:36.541Z,100502.22
2023-04-21T17:07:06.850Z,100502.69
2023-04-21T17:09:37.144Z,100500.16
2023-04-21T17:12:07.869Z,100490.31
2023-04-21T17:14:38.933Z,100499.34
2023-04-21T17:17:09.686Z,100497.38
2023-04-21T17:19:40.055Z,100500.97
2023-04-21T17:22:10.150Z,100503.72
2023-04-21T17:24:51.909Z,100497.72
2023-04-21T17:27:23.334Z,100501.31
2023-04-21T17:29:53.816Z,100496.09
2023-04-21T17:32:24.780Z,100494.16
2023-04-21T17:34:55.408Z,100497.38
2023-04-21T17:37:25.901Z,100502.47
2023-04-21T17:39:56.484Z,100492.53
2023-04-21T17:42:26.902Z,100487.31
2023-04-21T17:44:57.327Z,100485.38
2023-04-21T17:47:27.755Z,100490.44
2023-04-21T17:49:59.005Z,100481.34
2023-04-21T17:52:29.368Z,100468.63
2023-04-21T17:54:59.570Z,100474.50
2023-04-21T17:57:30.060Z,100464.56
2023-04-21T18:00:00.893Z,100468.16
2023-04-21T18:02:31.372Z,100467.34
2023-04-21T18:05:01.805Z,100465.38
2023-04-21T18:07:32.136Z,100465.03
2023-04-21T18:10:02.800Z,100466.19
2023-04-21T18:12:33.047Z,100455.91
2023-04-21T18:15:03.844Z,100456.72
2023-04-21T18:17:34.553Z,100452.31
2023-04-21T18:20:05.032Z,100458.31
2023-04-21T18:22:37.764Z,100452.78
2023-04-21T18:25:08.597Z,100451.97
2023-04-21T18:27:38.677Z,100456.72
2023-04-21T18:30:11.179Z,100453.94
2023-04-21T18:32:42.763Z,100456.72
2023-04-21T18:35:13.058Z,100452.31
2023-04-21T18:37:43.285Z,100453.13
2023-04-21T18:40:14.095Z,100438.53
2023-04-21T18:42:44.413Z,100443.31
2023-04-21T18:45:14.856Z,100451.16
2023-04-21T18:47:45.113Z,100448.06
2023-04-21T18:50:15.481Z,100445.63
2023-04-21T18:52:45.768Z,100442.38
2023-04-21T18:55:17.693Z,100447.13
2023-04-21T18:57:47.974Z,100452.69
2023-04-21T19:00:18.534Z,100447.13
2023-04-21T19:02:50.997Z,100451.41
2023-04-21T19:05:21.439Z,100448.63
2023-04-21T19:07:51.768Z,100447.13
2023-04-21T19:10:22.132Z,100440.75
2023-04-21T19:12:52.540Z,100445.63
2023-04-21T19:15:23.741Z,100443.53
2023-04-21T19:17:53.706Z,100440.44
2023-04-21T19:20:24.192Z,100439.97
2023-04-21T19:22:54.462Z,100444.59
2023-04-21T19:25:24.749Z,100435.94
2023-04-21T19:27:54.997Z,100445.06
2023-04-21T19:30:25.462Z,100446.66
2023-04-21T19:32:56.615Z,100439.41
2023-04-21T19:35:26.969Z,100441.34
2023-04-21T19:37:57.033Z,100429.94
2023-04-21T19:40:27.433Z,100427.16
2023-04-21T19:42:58.139Z,100434.31
2023-04-21T19:45:28.860Z,100433.88
2023-04-21T19:47:59.103Z,100426.69
2023-04-21T19:50:29.885Z,100422.88
2023-04-21T19:53:00.169Z,100422.75
2023-04-21T19:55:31.110Z,100421.59
2023-04-21T19:58:01.861Z,100419.31
2023-04-21T20:00:32.266Z,100416.53
2023-04-21T20:03:02.639Z,100419.31
2023-04-21T20:05:32.776Z,100410.53
2023-04-21T20:08:03.101Z,100420.78
2023-04-21T20:10:33.441Z,100415.25
2023-04-21T20:13:03.761Z,100417.22
2023-04-21T20:15:34.784Z,100416.75
2023-04-21T20:18:05.136Z,100421.59
2023-04-21T20:20:35.993Z,100422.06
2023-04-21T20:23:06.571Z,100424.38
2023-04-21T20:25:36.763Z,100415.59
2023-04-21T20:28:06.946Z,100417.22
2023-04-21T20:30:37.062Z,100419.88
2023-04-21T20:33:07.512Z,100425.09
2023-04-21T20:35:41.768Z,100417.56
2023-04-21T20:38:12.710Z,100424.63
2023-04-21T20:40:43.001Z,100420.22
2023-04-21T20:43:15.272Z,100425.78
2023-04-21T20:45:46.947Z,100432.25
2023-04-21T20:48:17.208Z,100433.72
2023-04-21T20:50:49.133Z,100436.50
2023-04-21T20:53:21.504Z,100441.25
2023-04-21T20:55:53.011Z,100438.94
2023-04-21T20:58:23.373Z,100440.09
2023-04-21T21:00:53.703Z,100442.06
2023-04-21T21:03:24.111Z,100437.34
2023-04-21T21:05:54.336Z,100434.09
2023-04-21T21:08:24.580Z,100433.31
2023-04-21T21:10:54.738Z,100440.47
2023-04-21T21:13:25.117Z,100441.72
2023-04-21T21:15:55.426Z,100432.94
2023-04-21T21:18:25.660Z,100438.47
2023-04-21T21:20:55.720Z,100446.81
2023-04-21T21:23:25.826Z,100449.13
2023-04-21T21:25:56.048Z,100459.06
2023-04-21T21:28:26.220Z,100455.91
2023-04-21T21:30:56.447Z,100466.22
2023-04-21T21:33:26.614Z,100470.84
2023-04-21T21:35:56.734Z,100475.22
2023-04-21T21:38:27.075Z,100483.56
2023-04-21T21:40:57.373Z,100474.06
2023-04-21T21:43:27.694Z,100482.41
2023-04-21T21:45:58.156Z,100482.41
2023-04-21T21:48:28.370Z,100481.25
2023-04-21T21:50:58.768Z,100483.91
2023-04-21T21:53:29.084Z,100485.53
2023-04-21T21:55:59.508Z,100497.41
2023-04-21T21:58:30.406Z,100490.25
2023-04-21T22:01:00.608Z,100494.19
2023-04-21T22:03:31.122Z,100502.16
2023-04-21T22:06:01.736Z,100503.66
2023-04-21T22:08:32.048Z,100510.03
2023-04-21T22:11:03.704Z,100508.16
2023-04-21T22:13:34.413Z,100510.16
2023-04-21T22:16:04.810Z,100520.09
2023-04-21T22:18:35.238Z,100520.09
2023-04-21T22:21:05.499Z,100524.13
2023-04-21T22:23:35.870Z,100532.44
2023-04-21T22:26:06.099Z,100536.16
2023-04-21T22:28:36.531Z,100520.66
2023-04-21T22:31:07.160Z,100527.00
2023-04-21T22:33:37.670Z,100532.44
2023-04-21T22:36:09.832Z,100535.31
2023-04-21T22:38:40.792Z,100538.56
2023-04-21T22:41:11.019Z,100545.94
2023-04-21T22:43:41.439Z,100550.00
2023-04-21T22:46:11.795Z,100545.72
2023-04-21T22:48:42.190Z,100542.97
2023-04-21T22:51:12.695Z,100536.25
2023-04-21T22:53:44.449Z,100549.19
2023-04-21T22:56:15.244Z,100558.44
2023-04-21T22:58:45.988Z,100561.19
2023-04-21T23:01:16.460Z,100554.59
2023-04-21T23:03:46.932Z,100552.88
2023-04-21T23:06:17.518Z,100555.75
2023-04-21T23:08:48.042Z,100564.91
2023-04-21T23:11:18.663Z,100566.19
2023-04-21T23:13:49.111Z,100564.44
2023-04-21T23:16:19.572Z,100566.53
2023-04-21T23:18:49.867Z,100572.53
2023-04-21T23:21:20.241Z,100582.13
2023-04-21T23:23:50.466Z,100582.81
2023-04-21T23:26:20.733Z,100586.84
2023-04-21T23:28:51.063Z,100588.47
2023-04-21T23:31:22.571Z,100595.63
2023-04-21T23:33:52.915Z,100587.66
2023-04-21T23:36:23.065Z,100588.25
2023-04-21T23:38:53.410Z,100595.41
2023-04-21T23:41:24.016Z,100600.97
2023-04-21T23:43:54.431Z,100597.25
2023-04-21T23:46:24.754Z,100604.09
2023-04-21T23:48:55.101Z,100612.53
2023-04-21T23:51:25.683Z,100608.34
2023-04-21T23:53:56.325Z,100619.72
2023-04-21T23:56:26.634Z,100626.78
2023-04-21T23:58:57.962Z,100636.25
